Station: Maningrida Airport  

  Atmospheric Gas Attenuation - ITU Rec 676-11   ----------------- dB/100km -----------------
Date Time Temp RH % AH g/m3 Dew Point Wind Direction Speed kph Gust kph Barometer mB Rainfall Since 9am 24GHz 47GHz 76GHz 122GHz 134GHz 241GHz
05/05 09:30 27 82 21.1 23.7 19 26 1012.9 0 45.2 43.1 85.1 225.2 251.1 872.7
05/05 09:20 26.2 84 20.68 23.3 19 22 1012.9 0 44.4 42.7 83.9 222.2 247.2 858.8
05/05 09:10 26 86 20.94 23.5 20 26 1012.9 0 45.0 43.3 85.4 226.1 252.0 875.5
05/05 09:00 25 90 20.72 23.2 20 32 1013 0 44.6 43.4 85.5 226.3 251.9 875.0
05/05 08:50 25.4 90 21.19 23.6 17 20 1012.8 3 45.6 44.1 87.4 231.2 258.1 896.5
05/05 08:40 25.4 91 21.42 23.8 22 26 1012.6 3 46.1 44.5 88.5 234.2 261.8 909.4
05/05 08:30 25.1 92 21.3 23.7 17 24 1012.5 3 45.9 44.5 88.2 233.6 260.9 906.2
05/05 08:20 25.3 92 21.54 23.9 17 19 1012.3 3 46.3 44.8 89.2 236.1 264.0 917.2
05/05 08:10 25.2 92 21.42 23.8 15 19 1012.2 3 46.1 44.6 88.7 234.8 262.4 911.6
05/05 08:00 25.2 92 21.42 23.8 15 20 1012.1 3 46.1 44.6 88.7 234.8 262.4 911.5
05/05 07:50 24.8 93 21.17 23.6 13 15 1011.8 3 45.6 44.3 87.9 232.7 259.7 902.0
05/05 07:40 24.4 94 20.92 23.4 13 15 1011.7 3 45.1 44.0 87.1 230.5 257.0 892.6
05/05 07:30 24 95 20.67 23.1 9 15 1011.6 3 44.6 43.7 86.3 228.4 254.3 883.1
05/05 07:20 23.6 96 20.42 22.9 9 11 1011.4 3 44.2 43.4 85.5 226.3 251.5 873.5
05/05 07:10 23.3 97 20.28 22.8 7 11 1011.3 3 43.9 43.3 85.1 225.3 250.3 869.0
05/05 07:00 22.9 97 19.82 22.4 7 11 1011.5 3 43.0 42.6 83.3 220.4 244.1 847.7
05/05 06:50 22.8 96 19.51 22.1 9 9 1011.3 3 42.3 42.0 81.9 216.6 239.4 831.3
05/05 06:40 22.9 96 19.62 22.2 7 9 1011.2 3 42.5 42.2 82.3 217.7 240.8 836.3
05/05 06:30 23.1 96 19.84 22.4 9 13 1011.2 3 43.0 42.5 83.2 220.1 243.7 846.4
05/05 06:20 23.1 95 19.64 22.3 7 9 1011.1 3 42.5 42.1 82.2 217.4 240.5 835.1
05/05 06:10 23.3 95 19.86 22.5 11 11 1011.1 3 43.0 42.5 83.0 219.7 243.4 845.2
05/05 06:00 23.4 95 19.98 22.6 11 15 1011 3 43.2 42.6 83.5 221.0 245.0 850.8
05/05 05:50 23.4 95 19.98 22.6 13 15 1010.7 3 43.2 42.6 83.5 220.9 244.9 850.6
05/05 05:40 23.2 95 19.75 22.4 11 15 1010.5 3 42.8 42.3 82.6 218.5 241.8 839.8
05/05 05:30 23 95 19.52 22.2 13 15 1010.5 3 42.3 41.9 81.6 216.0 238.8 829.2
05/05 05:20 23 95 19.52 22.2 13 15 1010.4 3 42.3 41.9 81.6 216.0 238.8 829.1
05/05 05:10 22.9 95 19.41 22.1 13 15 1010.3 2.8 42.1 41.7 81.2 214.8 237.3 824.0
05/05 05:00 22.9 95 19.41 22.1 13 15 1010.4 2.8 42.1 41.7 81.2 214.9 237.3 824.1
05/05 04:50 23.1 95 19.64 22.3 11 13 1010.3 2.8 42.6 42.1 82.1 217.3 240.4 834.7
05/05 04:40 23.1 95 19.64 22.3 11 13 1010.3 2.8 42.6 42.1 82.1 217.3 240.4 834.7
05/05 04:30 23.1 95 19.64 22.3 11 13 1010.4 2.8 42.6 42.1 82.1 217.3 240.4 834.7
05/05 04:20 23.3 94 19.65 22.3 11 13 1010.3 2.8 42.6 42.0 81.9 216.8 239.9 833.0
05/05 04:10 23.4 94 19.76 22.4 11 13 1010.3 2.8 42.8 42.2 82.4 218.0 241.3 838.0
05/05 04:00 23.4 95 19.98 22.6 11 15 1010.5 2.8 43.2 42.6 83.5 220.9 244.9 850.5
05/05 03:50 23.3 95 19.86 22.5 11 11 1010.5 2.8 43.0 42.4 83.0 219.6 243.3 844.9
05/05 03:40 23.2 95 19.75 22.4 11 13 1010.5 2.8 42.8 42.3 82.6 218.5 241.8 839.8
05/05 03:30 23.3 95 19.86 22.5 11 13 1010.8 2.8 43.0 42.4 83.0 219.7 243.3 845.0
05/05 03:20 23.3 95 19.86 22.5 11 13 1010.7 2.8 43.0 42.4 83.0 219.7 243.3 845.0
05/05 03:10 23.5 94 19.88 22.5 11 11 1010.8 2.8 43.0 42.4 82.9 219.3 243.0 843.9
05/05 03:00 23.5 94 19.88 22.5 9 13 1010.9 2.8 43.0 42.4 82.9 219.4 243.0 844.0
05/05 02:50 23.6 95 20.2 22.8 7 9 1010.8 2.8 43.7 43.0 84.4 223.3 247.9 860.7
05/05 02:40 23.5 95 20.09 22.7 11 13 1010.9 2.8 43.5 42.8 83.9 222.1 246.4 855.8
05/05 02:30 23.6 95 20.2 22.8 9 11 1011.1 2.8 43.7 43.0 84.4 223.3 247.9 860.9
05/05 02:20 23.6 94 19.99 22.6 9 11 1011.1 2.8 43.2 42.6 83.3 220.5 244.5 849.1
05/05 02:10 23.7 94 20.11 22.7 9 11 1011.2 2.8 43.5 42.8 83.8 221.8 246.1 854.8
05/05 02:00 23.8 93 20 22.6 9 13 1011.3 2.8 43.2 42.5 83.2 220.1 244.0 847.5
05/05 01:50 23.9 93 20.12 22.7 11 11 1011.1 2.8 43.5 42.7 83.6 221.4 245.6 853.0
05/05 01:40 23.8 93 20 22.6 11 13 1011.2 2.8 43.2 42.5 83.2 220.1 244.0 847.4
05/05 01:30 23.7 93 19.89 22.5 11 13 1011.4 2.8 43.0 42.3 82.8 219.0 242.6 842.5
05/05 01:20 23.5 94 19.88 22.5 9 9 1011.4 2.8 43.0 42.4 82.9 219.4 243.1 844.2
05/05 01:10 23.6 94 19.99 22.6 7 7 1011.5 2.8 43.2 42.6 83.4 220.6 244.6 849.3
05/05 01:00 23.7 94 20.11 22.7 7 9 1011.6 2.8 43.5 42.8 83.9 221.9 246.2 855.0
05/05 00:50 23.6 94 19.99 22.6 7 9 1011.6 2.8 43.2 42.6 83.4 220.6 244.6 849.4
05/05 00:40 23.6 94 19.99 22.6 7 9 1011.5 2.8 43.2 42.6 83.4 220.6 244.6 849.3
05/05 00:30 23.7 94 20.11 22.7 7 9 1011.7 2.8 43.5 42.8 83.9 221.9 246.2 855.0
05/05 00:20 23.6 94 19.99 22.6 7 9 1011.6 2.8 43.2 42.6 83.4 220.6 244.6 849.4
05/05 00:10 23.7 94 20.11 22.7 7 9 1011.8 2.8 43.5 42.8 83.9 221.9 246.2 855.1
05/05 00:00 23.8 94 20.22 22.8 7 7 1011.9 2.8 43.7 43.0 84.3 223.1 247.7 860.2
04/05 23:50 23.8 93 20 22.6 7 7 1011.9 2.8 43.2 42.5 83.2 220.2 244.1 847.8
04/05 23:40 23.8 93 20 22.6 9 9 1012 2.8 43.2 42.5 83.2 220.2 244.1 847.9
04/05 23:30 23.8 93 20 22.6 9 11 1012.1 2.8 43.2 42.5 83.2 220.3 244.2 848.0
04/05 23:20 23.8 93 20 22.6 7 9 1012.1 2.8 43.2 42.5 83.2 220.3 244.2 848.0
04/05 23:10 23.9 93 20.12 22.7 9 9 1012.2 2.8 43.5 42.7 83.7 221.6 245.8 853.6
04/05 23:00 24 93 20.23 22.8 9 11 1012.4 2.8 43.7 42.9 84.2 222.7 247.3 858.7
04/05 22:50 24 92 20.02 22.6 9 9 1012.3 2.8 43.3 42.5 83.1 220.0 243.9 846.9
04/05 22:40 24 93 20.23 22.8 7 9 1012.4 2.8 43.7 42.9 84.2 222.7 247.3 858.7
04/05 22:30 24.1 92 20.13 22.7 9 9 1012.5 2.8 43.5 42.6 83.6 221.1 245.3 852.1
04/05 22:20 24.2 91 20.02 22.6 9 9 1012.4 2.8 43.2 42.4 82.9 219.4 243.2 844.7
04/05 22:10 24.3 91 20.14 22.7 9 9 1012.4 2.8 43.5 42.6 83.4 220.7 244.8 850.3
04/05 22:00 24.6 89 20.03 22.7 9 15 1012.6 2.8 43.2 42.2 82.5 218.4 242.1 840.9
04/05 21:50 24.7 88 19.92 22.6 11 11 1012.5 2.8 43.0 41.9 81.9 216.7 240.0 833.6
04/05 21:40 24.9 89 20.37 23 11 13 1012.5 2.8 43.9 42.7 83.9 221.9 246.5 856.3
04/05 21:30 25 89 20.49 23.1 13 17 1012.6 2.8 44.1 42.9 84.3 223.2 248.1 861.9
04/05 21:20 25.1 91 21.07 23.5 11 11 1012.5 2.8 45.4 44.0 87.1 230.5 257.1 893.2
04/05 21:10 25.1 91 21.07 23.5 11 13 1012.4 2.8 45.4 44.0 87.1 230.5 257.1 893.1
04/05 21:00 24.9 94 21.52 23.9 9 11 1012.5 2.8 46.4 45.0 89.6 237.1 265.2 921.2
04/05 20:50 25.1 92 21.3 23.7 7 9 1012.3 2.8 45.9 44.4 88.2 233.5 260.8 906.1
04/05 20:40 25.3 91 21.3 23.7 11 11 1012.1 2.8 45.8 44.3 88.0 232.9 260.1 903.5
04/05 20:30 25.3 92 21.54 23.9 9 17 1012.2 2.8 46.3 44.8 89.2 236.1 264.0 917.2
04/05 20:20 25.6 92 21.9 24.2 7 7 1011.9 2.8 47.1 45.4 90.6 239.9 268.8 933.8
04/05 20:10 25.8 92 22.15 24.4 13 15 1011.9 2.8 47.6 45.8 91.6 242.6 272.2 945.5
04/05 20:00 26.4 89 22.16 24.4 13 24 1011.8 2.8 47.5 45.4 90.9 240.8 270.1 938.4
04/05 19:50 27.1 86 22.26 24.6 13 19 1011.8 2.6 47.7 45.2 90.6 239.8 269.2 935.3
04/05 19:40 27.6 81 21.55 24 9 11 1011.8 0 46.1 43.6 86.5 229.0 256.0 889.7
04/05 19:30 27.6 81 21.55 24 9 13 1011.8 0 46.1 43.6 86.5 229.0 256.0 889.7
04/05 19:20 27.6 82 21.82 24.2 11 13 1011.5 0 46.7 44.1 87.8 232.4 260.3 904.4
04/05 19:10 27.6 81 21.55 24 9 9 1011.3 0 46.1 43.6 86.5 228.9 255.9 889.4
04/05 19:00 27.7 81 21.67 24.1 9 13 1011.2 0 46.3 43.7 86.9 230.1 257.5 894.8
04/05 18:50 27.8 80 21.52 24 9 9 1011 0 46.0 43.4 86.1 227.9 254.7 885.2
04/05 18:40 27.9 79 21.37 23.9 6 7 1010.9 0 45.7 43.0 85.2 225.6 252.0 875.8
04/05 18:30 28.1 78 21.33 23.9 11 15 1010.9 0 45.6 42.8 84.8 224.5 250.7 871.3
04/05 18:20 28.2 78 21.45 24 9 11 1010.7 0 45.8 43.0 85.3 225.7 252.2 876.6
04/05 18:10 28.3 76 21.01 23.7 9 13 1010.5 0 44.9 42.1 83.0 219.8 245.0 851.5
04/05 18:00 28.5 77 21.52 24.1 11 17 1010.4 0 45.9 43.0 85.2 225.7 252.2 876.7
04/05 17:50 28.6 75 21.08 23.7 13 15 1010.3 0 45.0 42.1 83.0 219.8 245.1 851.8
04/05 17:40 28.9 75 21.43 24 9 11 1010.2 0 45.7 42.6 84.3 223.3 249.5 867.1
04/05 17:30 28.9 75 21.43 24 11 19 1010.2 0 45.7 42.6 84.3 223.3 249.5 867.1
04/05 17:20 28.9 74 21.14 23.8 11 13 1010 0 45.1 42.0 83.0 219.6 245.0 851.5
04/05 17:10 29 74 21.26 23.9 11 13 1009.8 0 45.3 42.2 83.4 220.8 246.4 856.6
04/05 17:00 29.3 72 21.02 23.7 11 17 1009.8 0 44.8 41.6 81.9 216.9 241.8 840.5

Last Refresh: 05-May-2026 09:41:40

Bureau of Meteorology